Airport View

Enter AWOS ICAO identifier for current METAR.

ex. KFNL

KX60 171000Z AUTO 01007KT 10SM OVC015 10/07 A2996 RMK AO2 T00970074

17 Nov 2019 10:00

Frequency: 118.425

Phone: 352-528-9949

Other Area AWOS: KOCF - KGNV - KCGC - KINF

TAF KGNV 170520Z 1706/1806 36007KT P6SM SCT008 OVC015 TEMPO 1706/1710 OVC008 FM171200 34008KT P6SM SCT010 BKN015 FM171400 35009KT P6SM SCT015 BKN025 FM171600 34007KT P6SM SCT025 SCT060